sensor_id;sensor_type;location;lat;lon;timestamp;P1;durP1;ratioP1;P2;durP2;ratioP2
42104;SDS011;70664;51.472;5.712;2024-01-11T00:01:26;10.20;;;5.97;;
42104;SDS011;70664;51.472;5.712;2024-01-11T00:03:52;11.02;;;6.53;;
42104;SDS011;70664;51.472;5.712;2024-01-11T00:06:18;9.63;;;6.47;;
42104;SDS011;70664;51.472;5.712;2024-01-11T00:08:44;10.15;;;6.20;;
42104;SDS011;70664;51.472;5.712;2024-01-11T00:11:10;10.75;;;6.20;;
42104;SDS011;70664;51.472;5.712;2024-01-11T00:13:35;9.82;;;6.70;;
42104;SDS011;70664;51.472;5.712;2024-01-11T00:16:01;8.70;;;5.97;;
42104;SDS011;70664;51.472;5.712;2024-01-11T00:18:27;10.10;;;6.55;;
42104;SDS011;70664;51.472;5.712;2024-01-11T00:20:53;11.77;;;6.75;;
42104;SDS011;70664;51.472;5.712;2024-01-11T00:23:19;11.32;;;6.72;;
42104;SDS011;70664;51.472;5.712;2024-01-11T00:25:44;8.45;;;6.07;;
42104;SDS011;70664;51.472;5.712;2024-01-11T00:28:10;9.00;;;6.18;;
42104;SDS011;70664;51.472;5.712;2024-01-11T00:30:36;9.95;;;6.25;;
42104;SDS011;70664;51.472;5.712;2024-01-11T00:33:02;10.63;;;6.30;;
42104;SDS011;70664;51.472;5.712;2024-01-11T00:35:28;9.18;;;6.40;;
42104;SDS011;70664;51.472;5.712;2024-01-11T00:37:53;10.18;;;6.47;;
42104;SDS011;70664;51.472;5.712;2024-01-11T00:40:19;9.75;;;6.38;;
42104;SDS011;70664;51.472;5.712;2024-01-11T00:42:45;10.75;;;6.45;;
42104;SDS011;70664;51.472;5.712;2024-01-11T00:45:11;10.07;;;6.35;;
42104;SDS011;70664;51.472;5.712;2024-01-11T00:47:36;9.48;;;6.30;;
42104;SDS011;70664;51.472;5.712;2024-01-11T00:50:02;10.88;;;6.38;;
42104;SDS011;70664;51.472;5.712;2024-01-11T00:52:28;11.80;;;6.32;;
42104;SDS011;70664;51.472;5.712;2024-01-11T00:54:54;10.70;;;6.80;;
42104;SDS011;70664;51.472;5.712;2024-01-11T00:57:20;9.15;;;6.35;;
42104;SDS011;70664;51.472;5.712;2024-01-11T00:59:45;9.32;;;6.03;;
42104;SDS011;70664;51.472;5.712;2024-01-11T01:02:11;9.38;;;6.63;;
42104;SDS011;70664;51.472;5.712;2024-01-11T01:04:37;11.32;;;6.72;;
42104;SDS011;70664;51.472;5.712;2024-01-11T01:07:04;10.73;;;6.63;;
42104;SDS011;70664;51.472;5.712;2024-01-11T01:09:30;10.95;;;7.07;;
42104;SDS011;70664;51.472;5.712;2024-01-11T01:11:56;10.57;;;6.78;;
42104;SDS011;70664;51.472;5.712;2024-01-11T01:14:22;9.98;;;6.47;;
42104;SDS011;70664;51.472;5.712;2024-01-11T01:16:48;9.93;;;6.30;;
42104;SDS011;70664;51.472;5.712;2024-01-11T01:19:14;9.25;;;6.53;;
42104;SDS011;70664;51.472;5.712;2024-01-11T01:21:39;10.82;;;6.75;;
42104;SDS011;70664;51.472;5.712;2024-01-11T01:24:05;9.68;;;6.80;;
42104;SDS011;70664;51.472;5.712;2024-01-11T01:26:31;9.75;;;6.63;;
42104;SDS011;70664;51.472;5.712;2024-01-11T01:28:57;9.85;;;6.70;;
42104;SDS011;70664;51.472;5.712;2024-01-11T01:31:22;9.70;;;6.68;;
42104;SDS011;70664;51.472;5.712;2024-01-11T01:33:48;8.93;;;6.28;;
42104;SDS011;70664;51.472;5.712;2024-01-11T01:36:14;11.52;;;6.82;;
42104;SDS011;70664;51.472;5.712;2024-01-11T01:38:40;11.10;;;7.07;;
42104;SDS011;70664;51.472;5.712;2024-01-11T01:41:05;11.00;;;6.85;;
42104;SDS011;70664;51.472;5.712;2024-01-11T01:43:31;12.45;;;7.00;;
42104;SDS011;70664;51.472;5.712;2024-01-11T01:45:57;10.35;;;6.75;;
42104;SDS011;70664;51.472;5.712;2024-01-11T01:48:24;10.55;;;6.30;;
42104;SDS011;70664;51.472;5.712;2024-01-11T01:50:50;10.18;;;6.75;;
42104;SDS011;70664;51.472;5.712;2024-01-11T01:53:22;10.60;;;7.07;;
42104;SDS011;70664;51.472;5.712;2024-01-11T01:55:49;11.10;;;7.00;;
42104;SDS011;70664;51.472;5.712;2024-01-11T01:58:17;9.65;;;6.95;;
42104;SDS011;70664;51.472;5.712;2024-01-11T02:00:44;10.07;;;7.20;;
42104;SDS011;70664;51.472;5.712;2024-01-11T02:03:12;10.98;;;6.93;;
42104;SDS011;70664;51.472;5.712;2024-01-11T02:05:39;9.15;;;6.75;;
42104;SDS011;70664;51.472;5.712;2024-01-11T02:08:06;10.50;;;6.75;;
42104;SDS011;70664;51.472;5.712;2024-01-11T02:10:33;9.85;;;6.88;;
42104;SDS011;70664;51.472;5.712;2024-01-11T02:13:00;10.57;;;6.80;;
42104;SDS011;70664;51.472;5.712;2024-01-11T02:15:26;10.57;;;6.95;;
42104;SDS011;70664;51.472;5.712;2024-01-11T02:17:53;9.43;;;6.82;;
42104;SDS011;70664;51.472;5.712;2024-01-11T02:20:19;9.40;;;6.63;;
42104;SDS011;70664;51.472;5.712;2024-01-11T02:22:46;11.18;;;6.97;;
42104;SDS011;70664;51.472;5.712;2024-01-11T02:25:18;10.70;;;7.18;;
42104;SDS011;70664;51.472;5.712;2024-01-11T02:27:47;10.63;;;7.07;;
42104;SDS011;70664;51.472;5.712;2024-01-11T02:30:14;10.95;;;6.70;;
42104;SDS011;70664;51.472;5.712;2024-01-11T02:32:40;10.15;;;6.53;;
42104;SDS011;70664;51.472;5.712;2024-01-11T02:35:11;10.65;;;7.35;;
42104;SDS011;70664;51.472;5.712;2024-01-11T02:37:38;10.98;;;7.38;;
42104;SDS011;70664;51.472;5.712;2024-01-11T02:40:05;10.48;;;7.10;;
42104;SDS011;70664;51.472;5.712;2024-01-11T02:42:33;9.68;;;6.65;;
42104;SDS011;70664;51.472;5.712;2024-01-11T02:45:00;11.70;;;7.20;;
42104;SDS011;70664;51.472;5.712;2024-01-11T02:47:28;11.25;;;7.13;;
42104;SDS011;70664;51.472;5.712;2024-01-11T02:49:54;11.43;;;7.28;;
42104;SDS011;70664;51.472;5.712;2024-01-11T02:52:22;9.85;;;6.68;;
42104;SDS011;70664;51.472;5.712;2024-01-11T02:54:48;10.57;;;6.65;;
42104;SDS011;70664;51.472;5.712;2024-01-11T02:57:14;8.70;;;6.57;;
42104;SDS011;70664;51.472;5.712;2024-01-11T02:59:40;10.40;;;6.93;;
42104;SDS011;70664;51.472;5.712;2024-01-11T03:02:08;10.57;;;6.95;;
42104;SDS011;70664;51.472;5.712;2024-01-11T03:04:34;10.57;;;7.57;;
42104;SDS011;70664;51.472;5.712;2024-01-11T03:06:59;10.77;;;6.93;;
42104;SDS011;70664;51.472;5.712;2024-01-11T03:09:25;10.85;;;7.57;;
42104;SDS011;70664;51.472;5.712;2024-01-11T03:11:51;12.50;;;7.13;;
42104;SDS011;70664;51.472;5.712;2024-01-11T03:14:17;9.05;;;6.55;;
42104;SDS011;70664;51.472;5.712;2024-01-11T03:16:43;9.23;;;6.57;;
42104;SDS011;70664;51.472;5.712;2024-01-11T03:19:08;12.45;;;7.32;;
42104;SDS011;70664;51.472;5.712;2024-01-11T03:21:34;9.68;;;6.50;;
42104;SDS011;70664;51.472;5.712;2024-01-11T03:24:01;10.57;;;7.47;;
42104;SDS011;70664;51.472;5.712;2024-01-11T03:26:26;10.57;;;7.55;;
42104;SDS011;70664;51.472;5.712;2024-01-11T03:28:52;12.10;;;7.70;;
42104;SDS011;70664;51.472;5.712;2024-01-11T03:31:18;9.82;;;6.50;;
42104;SDS011;70664;51.472;5.712;2024-01-11T03:33:44;10.48;;;7.35;;
42104;SDS011;70664;51.472;5.712;2024-01-11T03:36:10;10.27;;;7.32;;
42104;SDS011;70664;51.472;5.712;2024-01-11T03:38:37;11.60;;;7.90;;
42104;SDS011;70664;51.472;5.712;2024-01-11T03:41:09;9.18;;;6.97;;
42104;SDS011;70664;51.472;5.712;2024-01-11T03:43:35;9.38;;;6.90;;
42104;SDS011;70664;51.472;5.712;2024-01-11T03:46:02;11.48;;;7.40;;
42104;SDS011;70664;51.472;5.712;2024-01-11T03:48:29;11.13;;;7.13;;
42104;SDS011;70664;51.472;5.712;2024-01-11T03:50:56;11.05;;;7.40;;
42104;SDS011;70664;51.472;5.712;2024-01-11T03:53:22;10.63;;;7.25;;
42104;SDS011;70664;51.472;5.712;2024-01-11T03:55:48;11.48;;;7.25;;
42104;SDS011;70664;51.472;5.712;2024-01-11T03:58:13;10.80;;;7.35;;
42104;SDS011;70664;51.472;5.712;2024-01-11T04:00:39;10.43;;;7.65;;
42104;SDS011;70664;51.472;5.712;2024-01-11T04:03:08;12.25;;;7.80;;
42104;SDS011;70664;51.472;5.712;2024-01-11T04:05:34;10.77;;;7.18;;
42104;SDS011;70664;51.472;5.712;2024-01-11T04:08:00;11.43;;;7.22;;
42104;SDS011;70664;51.472;5.712;2024-01-11T04:10:30;10.32;;;7.53;;
42104;SDS011;70664;51.472;5.712;2024-01-11T04:12:56;10.27;;;7.05;;
42104;SDS011;70664;51.472;5.712;2024-01-11T04:15:21;10.82;;;7.13;;
42104;SDS011;70664;51.472;5.712;2024-01-11T04:17:47;10.85;;;7.22;;
42104;SDS011;70664;51.472;5.712;2024-01-11T04:20:13;10.45;;;7.20;;
42104;SDS011;70664;51.472;5.712;2024-01-11T04:22:39;11.02;;;7.22;;
42104;SDS011;70664;51.472;5.712;2024-01-11T04:25:05;9.65;;;6.72;;
42104;SDS011;70664;51.472;5.712;2024-01-11T04:27:31;11.43;;;7.10;;
42104;SDS011;70664;51.472;5.712;2024-01-11T04:29:57;11.25;;;7.15;;
42104;SDS011;70664;51.472;5.712;2024-01-11T04:32:23;11.77;;;7.68;;
42104;SDS011;70664;51.472;5.712;2024-01-11T04:34:49;11.30;;;7.60;;
42104;SDS011;70664;51.472;5.712;2024-01-11T04:37:14;11.35;;;7.70;;
42104;SDS011;70664;51.472;5.712;2024-01-11T04:39:40;11.43;;;7.80;;
42104;SDS011;70664;51.472;5.712;2024-01-11T04:42:06;11.05;;;7.35;;
42104;SDS011;70664;51.472;5.712;2024-01-11T04:44:32;10.88;;;7.30;;
42104;SDS011;70664;51.472;5.712;2024-01-11T04:46:57;10.95;;;7.80;;
42104;SDS011;70664;51.472;5.712;2024-01-11T04:49:23;9.63;;;7.43;;
42104;SDS011;70664;51.472;5.712;2024-01-11T04:51:49;10.13;;;6.97;;
42104;SDS011;70664;51.472;5.712;2024-01-11T04:54:15;11.25;;;7.55;;
42104;SDS011;70664;51.472;5.712;2024-01-11T04:56:41;11.50;;;7.60;;
42104;SDS011;70664;51.472;5.712;2024-01-11T04:59:06;10.20;;;7.20;;
42104;SDS011;70664;51.472;5.712;2024-01-11T05:01:32;10.68;;;7.45;;
42104;SDS011;70664;51.472;5.712;2024-01-11T05:03:58;9.98;;;7.18;;
42104;SDS011;70664;51.472;5.712;2024-01-11T05:06:23;9.98;;;7.15;;
42104;SDS011;70664;51.472;5.712;2024-01-11T05:08:50;10.07;;;7.00;;
42104;SDS011;70664;51.472;5.712;2024-01-11T05:11:21;11.65;;;7.70;;
42104;SDS011;70664;51.472;5.712;2024-01-11T05:13:49;11.73;;;7.65;;
42104;SDS011;70664;51.472;5.712;2024-01-11T05:16:20;10.00;;;7.53;;
42104;SDS011;70664;51.472;5.712;2024-01-11T05:18:50;12.25;;;7.68;;
42104;SDS011;70664;51.472;5.712;2024-01-11T05:21:18;10.13;;;7.18;;
42104;SDS011;70664;51.472;5.712;2024-01-11T05:23:44;12.07;;;7.95;;
42104;SDS011;70664;51.472;5.712;2024-01-11T05:26:10;12.63;;;7.95;;
42104;SDS011;70664;51.472;5.712;2024-01-11T05:28:41;9.98;;;7.20;;
42104;SDS011;70664;51.472;5.712;2024-01-11T05:31:07;11.75;;;8.10;;
42104;SDS011;70664;51.472;5.712;2024-01-11T05:33:41;11.00;;;7.40;;
42104;SDS011;70664;51.472;5.712;2024-01-11T05:36:07;12.43;;;7.70;;
42104;SDS011;70664;51.472;5.712;2024-01-11T05:38:33;12.23;;;7.53;;
42104;SDS011;70664;51.472;5.712;2024-01-11T05:41:00;11.60;;;7.32;;
42104;SDS011;70664;51.472;5.712;2024-01-11T05:43:26;12.20;;;8.07;;
42104;SDS011;70664;51.472;5.712;2024-01-11T05:45:52;10.40;;;7.30;;
42104;SDS011;70664;51.472;5.712;2024-01-11T05:48:18;11.18;;;7.57;;
42104;SDS011;70664;51.472;5.712;2024-01-11T05:50:44;10.52;;;7.45;;
42104;SDS011;70664;51.472;5.712;2024-01-11T05:53:11;9.95;;;7.35;;
42104;SDS011;70664;51.472;5.712;2024-01-11T05:55:38;11.70;;;7.90;;
42104;SDS011;70664;51.472;5.712;2024-01-11T05:58:04;12.25;;;7.60;;
42104;SDS011;70664;51.472;5.712;2024-01-11T06:00:30;11.55;;;7.43;;
42104;SDS011;70664;51.472;5.712;2024-01-11T06:02:56;10.57;;;7.63;;
42104;SDS011;70664;51.472;5.712;2024-01-11T06:05:22;11.60;;;7.65;;
42104;SDS011;70664;51.472;5.712;2024-01-11T06:07:47;10.70;;;7.18;;
42104;SDS011;70664;51.472;5.712;2024-01-11T06:10:16;11.25;;;7.45;;
42104;SDS011;70664;51.472;5.712;2024-01-11T06:12:42;11.68;;;7.53;;
42104;SDS011;70664;51.472;5.712;2024-01-11T06:15:08;11.77;;;7.35;;
42104;SDS011;70664;51.472;5.712;2024-01-11T06:17:34;10.38;;;6.97;;
42104;SDS011;70664;51.472;5.712;2024-01-11T06:20:01;9.65;;;6.88;;
42104;SDS011;70664;51.472;5.712;2024-01-11T06:22:27;12.13;;;7.88;;
42104;SDS011;70664;51.472;5.712;2024-01-11T06:24:52;11.20;;;7.57;;
42104;SDS011;70664;51.472;5.712;2024-01-11T06:27:19;10.00;;;7.38;;
42104;SDS011;70664;51.472;5.712;2024-01-11T06:29:45;10.82;;;7.65;;
42104;SDS011;70664;51.472;5.712;2024-01-11T06:32:11;10.45;;;7.35;;
42104;SDS011;70664;51.472;5.712;2024-01-11T06:34:36;11.65;;;7.45;;
42104;SDS011;70664;51.472;5.712;2024-01-11T06:37:02;11.05;;;7.57;;
42104;SDS011;70664;51.472;5.712;2024-01-11T06:39:28;10.20;;;7.35;;
42104;SDS011;70664;51.472;5.712;2024-01-11T06:41:57;10.07;;;7.25;;
42104;SDS011;70664;51.472;5.712;2024-01-11T06:44:24;9.95;;;6.93;;
42104;SDS011;70664;51.472;5.712;2024-01-11T06:46:50;10.13;;;7.35;;
42104;SDS011;70664;51.472;5.712;2024-01-11T06:49:15;10.00;;;7.03;;
42104;SDS011;70664;51.472;5.712;2024-01-11T06:51:41;11.65;;;7.03;;
42104;SDS011;70664;51.472;5.712;2024-01-11T06:54:07;11.15;;;7.10;;
42104;SDS011;70664;51.472;5.712;2024-01-11T06:56:33;11.20;;;7.45;;
42104;SDS011;70664;51.472;5.712;2024-01-11T06:58:58;11.75;;;7.43;;
42104;SDS011;70664;51.472;5.712;2024-01-11T07:01:24;11.43;;;7.57;;
42104;SDS011;70664;51.472;5.712;2024-01-11T07:03:50;9.85;;;6.88;;
42104;SDS011;70664;51.472;5.712;2024-01-11T07:06:16;10.07;;;6.68;;
42104;SDS011;70664;51.472;5.712;2024-01-11T07:08:42;10.07;;;6.97;;
42104;SDS011;70664;51.472;5.712;2024-01-11T07:11:08;9.52;;;6.47;;
42104;SDS011;70664;51.472;5.712;2024-01-11T07:13:34;10.15;;;7.20;;
42104;SDS011;70664;51.472;5.712;2024-01-11T07:16:00;10.30;;;7.13;;
42104;SDS011;70664;51.472;5.712;2024-01-11T07:18:28;11.07;;;6.88;;
42104;SDS011;70664;51.472;5.712;2024-01-11T07:20:55;10.95;;;7.45;;
42104;SDS011;70664;51.472;5.712;2024-01-11T07:23:23;9.77;;;6.93;;
42104;SDS011;70664;51.472;5.712;2024-01-11T07:25:49;10.70;;;7.53;;
42104;SDS011;70664;51.472;5.712;2024-01-11T07:28:15;13.23;;;7.40;;
42104;SDS011;70664;51.472;5.712;2024-01-11T07:30:42;11.60;;;7.05;;
42104;SDS011;70664;51.472;5.712;2024-01-11T07:33:08;11.65;;;7.47;;
42104;SDS011;70664;51.472;5.712;2024-01-11T07:35:34;11.05;;;7.32;;
42104;SDS011;70664;51.472;5.712;2024-01-11T07:38:00;10.32;;;7.05;;
42104;SDS011;70664;51.472;5.712;2024-01-11T07:40:26;10.43;;;6.47;;
42104;SDS011;70664;51.472;5.712;2024-01-11T07:42:52;11.60;;;7.20;;
42104;SDS011;70664;51.472;5.712;2024-01-11T07:45:18;10.32;;;7.03;;
42104;SDS011;70664;51.472;5.712;2024-01-11T07:47:44;11.10;;;7.10;;
42104;SDS011;70664;51.472;5.712;2024-01-11T07:50:10;9.18;;;6.85;;
42104;SDS011;70664;51.472;5.712;2024-01-11T07:52:36;11.20;;;7.47;;
42104;SDS011;70664;51.472;5.712;2024-01-11T07:55:02;9.77;;;6.57;;
42104;SDS011;70664;51.472;5.712;2024-01-11T07:57:36;10.90;;;7.30;;
42104;SDS011;70664;51.472;5.712;2024-01-11T08:00:02;9.27;;;6.70;;
42104;SDS011;70664;51.472;5.712;2024-01-11T08:02:31;10.55;;;7.18;;
42104;SDS011;70664;51.472;5.712;2024-01-11T08:04:58;9.65;;;6.43;;
42104;SDS011;70664;51.472;5.712;2024-01-11T08:07:28;10.27;;;6.53;;
42104;SDS011;70664;51.472;5.712;2024-01-11T08:09:54;9.85;;;6.80;;
42104;SDS011;70664;51.472;5.712;2024-01-11T08:12:20;12.10;;;7.40;;
42104;SDS011;70664;51.472;5.712;2024-01-11T08:14:46;11.13;;;6.70;;
42104;SDS011;70664;51.472;5.712;2024-01-11T08:17:13;9.57;;;6.15;;
42104;SDS011;70664;51.472;5.712;2024-01-11T08:19:39;11.20;;;7.00;;
42104;SDS011;70664;51.472;5.712;2024-01-11T08:22:07;10.60;;;6.85;;
42104;SDS011;70664;51.472;5.712;2024-01-11T08:24:34;10.23;;;7.07;;
42104;SDS011;70664;51.472;5.712;2024-01-11T08:27:01;9.98;;;6.55;;
42104;SDS011;70664;51.472;5.712;2024-01-11T08:29:26;9.98;;;7.22;;
42104;SDS011;70664;51.472;5.712;2024-01-11T08:31:53;10.93;;;7.30;;
42104;SDS011;70664;51.472;5.712;2024-01-11T08:34:22;10.50;;;6.97;;
42104;SDS011;70664;51.472;5.712;2024-01-11T08:36:48;9.75;;;6.80;;
42104;SDS011;70664;51.472;5.712;2024-01-11T08:39:14;10.35;;;6.85;;
42104;SDS011;70664;51.472;5.712;2024-01-11T08:41:40;10.30;;;6.68;;
42104;SDS011;70664;51.472;5.712;2024-01-11T08:44:06;10.45;;;6.90;;
42104;SDS011;70664;51.472;5.712;2024-01-11T08:46:32;10.40;;;6.97;;
42104;SDS011;70664;51.472;5.712;2024-01-11T08:48:58;14.95;;;6.45;;
42104;SDS011;70664;51.472;5.712;2024-01-11T08:51:26;10.02;;;6.55;;
42104;SDS011;70664;51.472;5.712;2024-01-11T08:53:52;9.18;;;6.03;;
42104;SDS011;70664;51.472;5.712;2024-01-11T08:56:18;9.68;;;6.43;;
42104;SDS011;70664;51.472;5.712;2024-01-11T08:58:44;10.73;;;6.38;;
42104;SDS011;70664;51.472;5.712;2024-01-11T09:01:10;9.30;;;5.88;;
42104;SDS011;70664;51.472;5.712;2024-01-11T09:03:36;8.23;;;6.18;;
42104;SDS011;70664;51.472;5.712;2024-01-11T09:06:02;10.18;;;6.45;;
42104;SDS011;70664;51.472;5.712;2024-01-11T09:08:31;9.25;;;6.47;;
42104;SDS011;70664;51.472;5.712;2024-01-11T09:10:56;11.40;;;6.38;;
42104;SDS011;70664;51.472;5.712;2024-01-11T09:13:26;9.70;;;6.88;;
42104;SDS011;70664;51.472;5.712;2024-01-11T09:15:53;8.75;;;6.10;;
42104;SDS011;70664;51.472;5.712;2024-01-11T09:18:19;11.85;;;6.85;;
42104;SDS011;70664;51.472;5.712;2024-01-11T09:20:45;8.82;;;6.35;;
42104;SDS011;70664;51.472;5.712;2024-01-11T09:23:12;8.23;;;5.63;;
42104;SDS011;70664;51.472;5.712;2024-01-11T09:25:38;8.30;;;5.88;;
42104;SDS011;70664;51.472;5.712;2024-01-11T09:28:05;10.48;;;6.22;;
42104;SDS011;70664;51.472;5.712;2024-01-11T09:30:31;10.80;;;6.03;;
42104;SDS011;70664;51.472;5.712;2024-01-11T09:32:57;9.07;;;5.75;;
42104;SDS011;70664;51.472;5.712;2024-01-11T09:35:23;7.95;;;5.88;;
42104;SDS011;70664;51.472;5.712;2024-01-11T09:37:49;9.38;;;5.60;;
42104;SDS011;70664;51.472;5.712;2024-01-11T09:40:17;8.50;;;5.85;;
42104;SDS011;70664;51.472;5.712;2024-01-11T09:42:43;9.20;;;6.30;;
42104;SDS011;70664;51.472;5.712;2024-01-11T09:45:10;8.13;;;5.80;;
42104;SDS011;70664;51.472;5.712;2024-01-11T09:47:40;10.07;;;5.75;;
42104;SDS011;70664;51.472;5.712;2024-01-11T09:50:09;8.20;;;5.93;;
42104;SDS011;70664;51.472;5.712;2024-01-11T09:52:35;9.63;;;5.88;;
42104;SDS011;70664;51.472;5.712;2024-01-11T09:55:04;7.35;;;5.70;;
42104;SDS011;70664;51.472;5.712;2024-01-11T09:57:31;8.15;;;5.82;;
42104;SDS011;70664;51.472;5.712;2024-01-11T10:00:00;8.50;;;5.85;;
42104;SDS011;70664;51.472;5.712;2024-01-11T10:02:32;8.35;;;5.40;;
42104;SDS011;70664;51.472;5.712;2024-01-11T10:04:58;9.32;;;5.93;;
42104;SDS011;70664;51.472;5.712;2024-01-11T10:07:24;8.25;;;5.82;;
42104;SDS011;70664;51.472;5.712;2024-01-11T10:09:51;7.95;;;5.53;;
42104;SDS011;70664;51.472;5.712;2024-01-11T10:12:18;10.38;;;5.40;;
42104;SDS011;70664;51.472;5.712;2024-01-11T10:14:45;8.55;;;5.65;;
42104;SDS011;70664;51.472;5.712;2024-01-11T10:17:12;12.25;;;5.68;;
42104;SDS011;70664;51.472;5.712;2024-01-11T10:19:38;8.07;;;5.00;;
42104;SDS011;70664;51.472;5.712;2024-01-11T10:22:03;9.15;;;5.72;;
42104;SDS011;70664;51.472;5.712;2024-01-11T10:24:30;7.28;;;5.07;;
42104;SDS011;70664;51.472;5.712;2024-01-11T10:26:56;8.55;;;4.97;;
42104;SDS011;70664;51.472;5.712;2024-01-11T10:29:27;11.40;;;5.63;;
42104;SDS011;70664;51.472;5.712;2024-01-11T10:31:55;8.23;;;5.47;;
42104;SDS011;70664;51.472;5.712;2024-01-11T10:34:23;9.20;;;5.88;;
42104;SDS011;70664;51.472;5.712;2024-01-11T10:36:49;9.07;;;5.68;;
42104;SDS011;70664;51.472;5.712;2024-01-11T10:39:18;8.38;;;5.32;;
42104;SDS011;70664;51.472;5.712;2024-01-11T10:42:01;10.15;;;5.47;;
42104;SDS011;70664;51.472;5.712;2024-01-11T10:44:34;8.10;;;6.03;;
42104;SDS011;70664;51.472;5.712;2024-01-11T10:47:02;9.00;;;6.03;;
42104;SDS011;70664;51.472;5.712;2024-01-11T10:49:31;8.05;;;5.93;;
42104;SDS011;70664;51.472;5.712;2024-01-11T10:51:59;7.75;;;5.88;;
42104;SDS011;70664;51.472;5.712;2024-01-11T10:54:27;10.00;;;6.10;;
42104;SDS011;70664;51.472;5.712;2024-01-11T10:56:55;10.60;;;6.13;;
42104;SDS011;70664;51.472;5.712;2024-01-11T10:59:24;9.93;;;5.45;;
42104;SDS011;70664;51.472;5.712;2024-01-11T11:01:56;8.38;;;6.03;;
42104;SDS011;70664;51.472;5.712;2024-01-11T11:04:29;10.05;;;6.10;;
42104;SDS011;70664;51.472;5.712;2024-01-11T11:06:58;8.85;;;5.78;;
42104;SDS011;70664;51.472;5.712;2024-01-11T11:09:27;8.93;;;5.65;;
42104;SDS011;70664;51.472;5.712;2024-01-11T11:11:55;9.27;;;5.75;;
42104;SDS011;70664;51.472;5.712;2024-01-11T11:14:24;9.13;;;6.15;;
42104;SDS011;70664;51.472;5.712;2024-01-11T11:16:50;10.48;;;5.85;;
42104;SDS011;70664;51.472;5.712;2024-01-11T11:19:18;11.82;;;5.97;;
42104;SDS011;70664;51.472;5.712;2024-01-11T11:21:46;9.57;;;6.13;;
42104;SDS011;70664;51.472;5.712;2024-01-11T11:24:13;10.13;;;6.43;;
42104;SDS011;70664;51.472;5.712;2024-01-11T11:26:41;9.48;;;5.75;;
42104;SDS011;70664;51.472;5.712;2024-01-11T11:29:08;11.05;;;6.25;;
42104;SDS011;70664;51.472;5.712;2024-01-11T11:31:37;11.70;;;6.43;;
42104;SDS011;70664;51.472;5.712;2024-01-11T11:34:10;12.52;;;5.80;;
42104;SDS011;70664;51.472;5.712;2024-01-11T11:36:39;8.50;;;5.53;;
42104;SDS011;70664;51.472;5.712;2024-01-11T11:39:12;12.77;;;5.43;;
42104;SDS011;70664;51.472;5.712;2024-01-11T11:41:39;8.75;;;5.40;;
42104;SDS011;70664;51.472;5.712;2024-01-11T11:44:07;12.18;;;5.95;;
42104;SDS011;70664;51.472;5.712;2024-01-11T11:46:37;8.07;;;5.28;;
42104;SDS011;70664;51.472;5.712;2024-01-11T11:49:03;9.32;;;5.57;;
42104;SDS011;70664;51.472;5.712;2024-01-11T11:51:28;9.88;;;5.63;;
42104;SDS011;70664;51.472;5.712;2024-01-11T11:53:54;9.68;;;5.20;;
42104;SDS011;70664;51.472;5.712;2024-01-11T11:56:21;9.00;;;5.20;;
42104;SDS011;70664;51.472;5.712;2024-01-11T11:58:48;8.45;;;5.15;;
42104;SDS011;70664;51.472;5.712;2024-01-11T12:01:18;10.27;;;5.90;;
42104;SDS011;70664;51.472;5.712;2024-01-11T12:03:45;7.63;;;5.32;;
42104;SDS011;70664;51.472;5.712;2024-01-11T12:06:15;9.13;;;5.15;;
42104;SDS011;70664;51.472;5.712;2024-01-11T12:08:43;9.98;;;5.70;;
42104;SDS011;70664;51.472;5.712;2024-01-11T12:11:12;8.65;;;5.72;;
42104;SDS011;70664;51.472;5.712;2024-01-11T12:13:47;10.05;;;5.97;;
42104;SDS011;70664;51.472;5.712;2024-01-11T12:16:14;8.70;;;5.40;;
42104;SDS011;70664;51.472;5.712;2024-01-11T12:18:40;8.48;;;5.20;;
42104;SDS011;70664;51.472;5.712;2024-01-11T12:21:07;9.57;;;5.53;;
42104;SDS011;70664;51.472;5.712;2024-01-11T12:23:33;8.55;;;5.50;;
42104;SDS011;70664;51.472;5.712;2024-01-11T12:26:03;8.50;;;5.72;;
42104;SDS011;70664;51.472;5.712;2024-01-11T12:28:36;7.75;;;4.97;;
42104;SDS011;70664;51.472;5.712;2024-01-11T12:31:03;9.52;;;5.60;;
42104;SDS011;70664;51.472;5.712;2024-01-11T12:33:29;11.00;;;5.55;;
42104;SDS011;70664;51.472;5.712;2024-01-11T12:35:55;11.52;;;5.20;;
42104;SDS011;70664;51.472;5.712;2024-01-11T12:38:22;8.85;;;5.40;;
42104;SDS011;70664;51.472;5.712;2024-01-11T12:40:48;11.13;;;5.20;;
42104;SDS011;70664;51.472;5.712;2024-01-11T12:43:15;7.88;;;5.18;;
42104;SDS011;70664;51.472;5.712;2024-01-11T12:45:41;9.15;;;5.10;;
42104;SDS011;70664;51.472;5.712;2024-01-11T12:48:07;9.27;;;5.63;;
42104;SDS011;70664;51.472;5.712;2024-01-11T12:50:33;9.35;;;5.60;;
42104;SDS011;70664;51.472;5.712;2024-01-11T12:53:04;10.38;;;5.22;;
42104;SDS011;70664;51.472;5.712;2024-01-11T12:56:01;7.18;;;4.97;;
42104;SDS011;70664;51.472;5.712;2024-01-11T12:58:33;9.70;;;5.40;;
42104;SDS011;70664;51.472;5.712;2024-01-11T13:00:59;8.80;;;5.13;;
42104;SDS011;70664;51.472;5.712;2024-01-11T13:03:25;8.50;;;5.10;;
42104;SDS011;70664;51.472;5.712;2024-01-11T13:05:52;9.57;;;5.50;;
42104;SDS011;70664;51.472;5.712;2024-01-11T13:08:18;8.45;;;5.25;;
42104;SDS011;70664;51.472;5.712;2024-01-11T13:10:44;9.45;;;5.22;;
42104;SDS011;70664;51.472;5.712;2024-01-11T13:13:12;8.98;;;5.30;;
42104;SDS011;70664;51.472;5.712;2024-01-11T13:15:39;9.55;;;5.40;;
42104;SDS011;70664;51.472;5.712;2024-01-11T13:18:05;7.30;;;5.25;;
42104;SDS011;70664;51.472;5.712;2024-01-11T13:20:31;10.48;;;4.93;;
42104;SDS011;70664;51.472;5.712;2024-01-11T13:23:13;11.40;;;5.28;;
42104;SDS011;70664;51.472;5.712;2024-01-11T13:25:48;9.38;;;5.30;;
42104;SDS011;70664;51.472;5.712;2024-01-11T13:28:15;8.45;;;5.30;;
42104;SDS011;70664;51.472;5.712;2024-01-11T13:30:43;6.88;;;4.85;;
42104;SDS011;70664;51.472;5.712;2024-01-11T13:33:10;7.80;;;5.20;;
42104;SDS011;70664;51.472;5.712;2024-01-11T13:35:39;10.02;;;4.75;;
42104;SDS011;70664;51.472;5.712;2024-01-11T13:38:08;6.53;;;4.57;;
42104;SDS011;70664;51.472;5.712;2024-01-11T13:40:34;11.43;;;5.35;;
42104;SDS011;70664;51.472;5.712;2024-01-11T13:43:00;8.75;;;5.15;;
42104;SDS011;70664;51.472;5.712;2024-01-11T13:45:27;8.18;;;4.82;;
42104;SDS011;70664;51.472;5.712;2024-01-11T13:47:54;7.88;;;4.55;;
42104;SDS011;70664;51.472;5.712;2024-01-11T13:50:21;9.10;;;4.88;;
42104;SDS011;70664;51.472;5.712;2024-01-11T13:52:49;8.73;;;5.07;;
42104;SDS011;70664;51.472;5.712;2024-01-11T13:55:15;7.55;;;4.57;;
42104;SDS011;70664;51.472;5.712;2024-01-11T13:57:42;8.02;;;4.72;;
42104;SDS011;70664;51.472;5.712;2024-01-11T14:00:09;7.68;;;4.65;;
42104;SDS011;70664;51.472;5.712;2024-01-11T14:02:38;6.38;;;4.65;;
42104;SDS011;70664;51.472;5.712;2024-01-11T14:05:05;9.57;;;4.65;;
42104;SDS011;70664;51.472;5.712;2024-01-11T14:07:36;7.80;;;4.70;;
42104;SDS011;70664;51.472;5.712;2024-01-11T14:10:04;7.55;;;4.78;;
42104;SDS011;70664;51.472;5.712;2024-01-11T14:12:33;6.53;;;4.10;;
42104;SDS011;70664;51.472;5.712;2024-01-11T14:15:01;7.75;;;4.53;;
42104;SDS011;70664;51.472;5.712;2024-01-11T14:17:32;7.03;;;4.53;;
42104;SDS011;70664;51.472;5.712;2024-01-11T14:20:01;8.13;;;3.88;;
42104;SDS011;70664;51.472;5.712;2024-01-11T14:22:28;6.75;;;4.20;;
42104;SDS011;70664;51.472;5.712;2024-01-11T14:24:54;6.57;;;4.18;;
42104;SDS011;70664;51.472;5.712;2024-01-11T14:27:20;6.47;;;4.20;;
42104;SDS011;70664;51.472;5.712;2024-01-11T14:29:46;5.57;;;4.05;;
42104;SDS011;70664;51.472;5.712;2024-01-11T14:32:13;6.22;;;3.95;;
42104;SDS011;70664;51.472;5.712;2024-01-11T14:34:42;7.90;;;3.92;;
42104;SDS011;70664;51.472;5.712;2024-01-11T14:37:11;5.53;;;4.32;;
42104;SDS011;70664;51.472;5.712;2024-01-11T14:39:37;5.72;;;4.00;;